Time;durP1;ratioP1;P1;durP2;ratioP2;P2;SDS_P1;SDS_P2;PMS_P1;PMS_P2;Temp;Humidity;BMP_temperature;BMP_pressure;BME280_temperature;BME280_humidity;BME280_pressure;Samples;Min_cycle;Max_cycle;Signal;HPM_P1;HPM_P2
2022/01/05 00:01:31;;;;;;;0.60;0.60;;;;;;;4.13;100.00;93105.72;5057188;28;20207;-74
2022/01/05 00:03:57;;;;;;;0.50;0.50;;;;;;;4.13;100.00;93113.06;5066619;28;20218;-74
2022/01/05 00:06:22;;;;;;;0.43;0.43;;;;;;;4.09;100.00;93123.31;5050894;28;20186;-74
2022/01/05 00:08:48;;;;;;;0.43;0.43;;;;;;;3.98;100.00;93113.00;5072154;28;20190;-74
2022/01/05 00:11:13;;;;;;;1.07;0.50;;;;;;;3.91;100.00;93116.03;5066196;28;20214;-74
2022/01/05 00:13:39;;;;;;;0.73;0.43;;;;;;;3.92;100.00;93116.78;5063616;28;20190;-74
2022/01/05 00:16:05;;;;;;;0.60;0.50;;;;;;;3.65;100.00;93104.16;5074154;28;20214;-74
2022/01/05 00:18:32;;;;;;;0.40;0.40;;;;;;;3.52;100.00;93114.41;5070663;28;20239;-74
2022/01/05 00:20:59;;;;;;;0.30;0.30;;;;;;;3.41;100.00;93116.84;5070719;28;20673;-74
2022/01/05 00:23:25;;;;;;;0.40;0.40;;;;;;;3.38;100.00;93115.03;5071543;28;20214;-74
2022/01/05 00:25:51;;;;;;;0.40;0.40;;;;;;;3.20;100.00;93104.31;5058771;28;20300;-74
2022/01/05 00:28:17;;;;;;;0.43;0.43;;;;;;;3.19;100.00;93121.72;5038387;28;20240;-74
2022/01/05 00:30:42;;;;;;;0.50;0.50;;;;;;;3.24;100.00;93124.50;5067265;28;20198;-74
2022/01/05 00:33:08;;;;;;;0.50;0.50;;;;;;;3.12;100.00;93138.91;5072443;28;20219;-74
2022/01/05 00:35:34;;;;;;;0.37;0.37;;;;;;;3.00;100.00;93145.25;5056328;28;20217;-74
2022/01/05 00:37:59;;;;;;;0.40;0.40;;;;;;;3.14;100.00;93160.78;5060599;28;20195;-74
2022/01/05 00:40:25;;;;;;;2.87;0.37;;;;;;;3.13;100.00;93169.34;5034854;28;20277;-74
2022/01/05 00:42:54;;;;;;;4.73;0.50;;;;;;;2.99;100.00;93164.56;5087610;28;20295;-74
2022/01/05 00:45:19;;;;;;;0.40;0.40;;;;;;;2.92;100.00;93171.00;5080991;28;20209;-75
2022/01/05 00:47:45;;;;;;;0.30;0.30;;;;;;;3.16;100.00;93176.53;5068401;28;20204;-74
2022/01/05 00:50:11;;;;;;;0.30;0.30;;;;;;;3.01;100.00;93173.72;5063552;28;20217;-74
2022/01/05 00:52:37;;;;;;;0.20;0.20;;;;;;;3.03;100.00;93175.94;5052438;28;20191;-74
2022/01/05 00:55:03;;;;;;;0.37;0.37;;;;;;;3.10;100.00;93171.00;5064396;28;20308;-74
2022/01/05 00:57:28;;;;;;;0.40;0.40;;;;;;;2.87;100.00;93178.97;5067972;28;20323;-74
2022/01/05 00:59:54;;;;;;;0.30;0.30;;;;;;;2.80;100.00;93171.19;5058264;28;20273;-74
2022/01/05 01:02:20;;;;;;;0.40;0.40;;;;;;;2.80;100.00;93187.34;5050702;28;20234;-74
2022/01/05 01:04:46;;;;;;;0.40;0.40;;;;;;;2.89;100.00;93176.53;5056039;28;20214;-74
2022/01/05 01:07:11;;;;;;;0.37;0.37;;;;;;;2.81;100.00;93186.91;5054347;28;20186;-74
2022/01/05 01:09:38;;;;;;;0.40;0.40;;;;;;;2.84;100.00;93188.69;5069808;28;20190;-75
2022/01/05 01:12:04;;;;;;;0.30;0.30;;;;;;;2.90;100.00;93192.25;5058087;28;20190;-74
2022/01/05 01:14:30;;;;;;;1.00;0.60;;;;;;;2.97;100.00;93196.63;5078009;28;20197;-74
2022/01/05 01:16:56;;;;;;;0.43;0.43;;;;;;;3.09;100.00;93203.81;5033441;28;20193;-74
2022/01/05 01:19:21;;;;;;;0.50;0.50;;;;;;;2.95;100.00;93186.31;5063231;28;20198;-75
2022/01/05 01:21:47;;;;;;;0.40;0.40;;;;;;;2.92;100.00;93205.31;5079706;28;20212;-74
2022/01/05 01:24:13;;;;;;;0.30;0.30;;;;;;;3.04;100.00;93209.78;5061169;28;20218;-75
2022/01/05 01:26:39;;;;;;;0.43;0.43;;;;;;;3.11;100.00;93202.16;5069767;28;20189;-74
2022/01/05 01:29:05;;;;;;;0.37;0.37;;;;;;;2.94;100.00;93205.59;5061706;28;20194;-75
2022/01/05 01:31:31;;;;;;;6.30;0.67;;;;;;;2.91;100.00;93215.34;5088783;28;20185;-74
2022/01/05 01:33:57;;;;;;;0.30;0.30;;;;;;;2.94;100.00;93217.13;5061332;28;20178;-75
2022/01/05 01:36:25;;;;;;;0.30;0.30;;;;;;;2.76;100.00;93225.22;5063368;28;20219;-75
2022/01/05 01:38:51;;;;;;;0.50;0.50;;;;;;;2.75;100.00;93226.41;5061167;28;20679;-75
2022/01/05 01:41:17;;;;;;;0.57;0.57;;;;;;;2.92;100.00;93233.00;5079304;28;20284;-75
2022/01/05 01:43:42;;;;;;;0.50;0.47;;;;;;;3.07;100.00;93217.72;5080744;28;21701;-75
2022/01/05 01:46:08;;;;;;;0.40;0.40;;;;;;;2.92;100.00;93222.22;5067096;28;20206;-75
2022/01/05 01:48:34;;;;;;;0.30;0.30;;;;;;;2.91;100.00;93231.53;5041167;28;20614;-75
2022/01/05 01:51:00;;;;;;;0.40;0.40;;;;;;;2.88;100.00;93227.03;5064808;28;20190;-75
2022/01/05 01:53:26;;;;;;;0.67;0.33;;;;;;;2.94;100.00;93224.47;5075585;28;20202;-75
2022/01/05 01:55:52;;;;;;;0.43;0.40;;;;;;;3.00;100.00;93228.09;5056082;28;20307;-75
2022/01/05 01:58:20;;;;;;;0.37;0.37;;;;;;;2.99;100.00;93227.31;5047573;28;20202;-76
2022/01/05 02:00:49;;;;;;;0.43;0.40;;;;;;;2.89;100.00;93219.69;5056918;28;20269;-75
2022/01/05 02:03:15;;;;;;;0.30;0.30;;;;;;;2.85;100.00;93236.00;5082648;28;20217;-75
2022/01/05 02:05:41;;;;;;;1.80;0.70;;;;;;;2.83;100.00;93233.03;5052607;28;20209;-75
2022/01/05 02:08:07;;;;;;;0.40;0.40;;;;;;;2.85;100.00;93230.59;5064104;28;20228;-75
2022/01/05 02:10:36;;;;;;;0.40;0.40;;;;;;;2.64;100.00;93230.72;5051299;28;20235;-74
2022/01/05 02:13:03;;;;;;;0.53;0.53;;;;;;;2.73;100.00;93228.81;5050588;28;20947;-75
2022/01/05 02:15:29;;;;;;;0.40;0.40;;;;;;;2.90;100.00;93231.97;5069323;28;20227;-75
2022/01/05 02:18:20;;;;;;;0.53;0.53;;;;;;;2.76;100.00;93227.91;5067849;28;20200;-75
2022/01/05 02:20:46;;;;;;;0.53;0.47;;;;;;;2.66;100.00;93226.41;5051995;28;20194;-75
2022/01/05 02:23:12;;;;;;;0.70;0.70;;;;;;;2.53;100.00;93223.06;5032629;28;20210;-75
2022/01/05 02:25:38;;;;;;;0.50;0.50;;;;;;;2.73;100.00;93206.50;5064086;28;20300;-75
2022/01/05 02:28:03;;;;;;;0.53;0.53;;;;;;;2.71;100.00;93220.44;5041189;28;20298;-75
2022/01/05 02:30:30;;;;;;;0.60;0.50;;;;;;;2.76;100.00;93236.00;5071675;28;20190;-75
2022/01/05 02:32:56;;;;;;;0.50;0.50;;;;;;;2.61;100.00;93218.16;5074211;28;20227;-75
2022/01/05 02:35:23;;;;;;;0.47;0.47;;;;;;;2.77;100.00;93223.25;5046184;28;20206;-74
2022/01/05 02:37:53;;;;;;;0.90;0.90;;;;;;;2.87;100.00;93230.19;5038434;28;20186;-75
2022/01/05 02:40:22;;;;;;;0.50;0.50;;;;;;;2.58;100.00;93232.53;5052882;28;20194;-75
2022/01/05 02:42:48;;;;;;;0.60;0.60;;;;;;;2.68;100.00;93229.38;5060502;28;20209;-75
2022/01/05 02:45:14;;;;;;;0.50;0.50;;;;;;;2.55;100.00;93219.94;5077447;28;20265;-75
2022/01/05 02:47:43;;;;;;;0.60;0.60;;;;;;;2.58;100.00;93229.84;5052639;28;20185;-75
2022/01/05 02:50:11;;;;;;;0.47;0.47;;;;;;;2.64;100.00;93226.09;5067919;28;20194;-75
2022/01/05 02:52:37;;;;;;;0.43;0.43;;;;;;;2.75;100.00;93233.75;5039957;28;20205;-75
2022/01/05 02:55:04;;;;;;;0.73;0.70;;;;;;;2.56;100.00;93230.28;5066681;28;20214;-75
2022/01/05 02:57:29;;;;;;;0.50;0.50;;;;;;;2.62;100.00;93239.28;5078225;28;20190;-75
2022/01/05 02:59:55;;;;;;;0.47;0.47;;;;;;;2.59;100.00;93234.03;5051935;28;20229;-75
2022/01/05 03:02:22;;;;;;;0.60;0.60;;;;;;;2.70;100.00;93223.56;5076820;28;20203;-75
2022/01/05 03:04:48;;;;;;;0.50;0.50;;;;;;;2.83;100.00;93224.94;5072331;28;20209;-74
2022/01/05 03:07:15;;;;;;;0.50;0.50;;;;;;;2.85;100.00;93221.78;5060894;28;20190;-75
2022/01/05 03:09:41;;;;;;;0.40;0.40;;;;;;;2.89;100.00;93225.06;5063073;28;20198;-75
2022/01/05 03:12:07;;;;;;;0.33;0.33;;;;;;;2.95;100.00;93228.69;5072227;28;20193;-75
2022/01/05 03:14:33;;;;;;;0.77;0.47;;;;;;;2.96;100.00;93222.84;5081418;28;20210;-75
2022/01/05 03:16:59;;;;;;;0.40;0.40;;;;;;;2.94;100.00;93222.53;5074348;28;20193;-75
2022/01/05 03:19:24;;;;;;;0.43;0.43;;;;;;;3.04;100.00;93226.72;5074065;28;20319;-75
2022/01/05 03:21:50;;;;;;;0.43;0.43;;;;;;;3.02;100.00;93239.91;5074423;28;20240;-74
2022/01/05 03:24:16;;;;;;;0.40;0.40;;;;;;;3.18;100.00;93230.78;5062350;28;20226;-74
2022/01/05 03:26:41;;;;;;;0.30;0.30;;;;;;;3.00;100.00;93238.88;5036765;28;20187;-75
2022/01/05 03:29:07;;;;;;;0.30;0.30;;;;;;;2.95;100.00;93231.38;5062007;28;20821;-74
2022/01/05 03:31:33;;;;;;;0.60;0.50;;;;;;;3.08;100.00;93232.72;5052853;28;20621;-74
2022/01/05 03:33:58;;;;;;;0.30;0.30;;;;;;;3.22;100.00;93236.78;5069712;28;20181;-75
2022/01/05 03:36:24;;;;;;;0.30;0.30;;;;;;;2.93;100.00;93245.31;5076829;28;20269;-74
2022/01/05 03:38:50;;;;;;;1.17;0.50;;;;;;;3.15;100.00;93240.53;5053289;28;20304;-74
2022/01/05 03:41:16;;;;;;;0.80;0.40;;;;;;;2.81;100.00;93238.09;5067355;28;20228;-74
2022/01/05 03:43:41;;;;;;;0.60;0.40;;;;;;;2.93;100.00;93247.25;5078272;28;20217;-74
2022/01/05 03:46:07;;;;;;;0.40;0.40;;;;;;;2.73;100.00;93241.53;5066994;28;20292;-75
2022/01/05 03:48:33;;;;;;;0.43;0.43;;;;;;;2.65;100.00;93237.63;5034379;28;20805;-75
2022/01/05 03:50:58;;;;;;;0.40;0.40;;;;;;;2.65;100.00;93243.03;5061662;28;20203;-75
2022/01/05 03:53:24;;;;;;;0.50;0.50;;;;;;;2.54;100.00;93250.78;5076539;28;20194;-75
2022/01/05 03:55:49;;;;;;;1.23;0.60;;;;;;;2.80;100.00;93249.34;5060335;28;20214;-75
2022/01/05 03:58:16;;;;;;;2.47;0.57;;;;;;;2.61;100.00;93245.09;5059605;28;20194;-75
2022/01/05 04:00:48;;;;;;;0.50;0.50;;;;;;;2.76;100.00;93232.56;5032461;28;20238;-75
2022/01/05 04:03:14;;;;;;;0.50;0.50;;;;;;;2.76;100.00;93257.56;5069091;28;20217;-75
2022/01/05 04:05:41;;;;;;;0.40;0.40;;;;;;;2.54;100.00;93253.47;5062891;28;20237;-75
2022/01/05 04:08:12;;;;;;;0.60;0.60;;;;;;;2.48;100.00;93248.66;5082361;28;20192;-75
2022/01/05 04:10:39;;;;;;;0.50;0.50;;;;;;;2.59;100.00;93250.94;5061013;28;20187;-75
2022/01/05 04:13:05;;;;;;;0.40;0.40;;;;;;;2.44;100.00;93250.75;5062490;28;20253;-75
2022/01/05 04:15:30;;;;;;;0.50;0.50;;;;;;;2.43;100.00;93246.56;5080117;28;20692;-75
2022/01/05 04:17:56;;;;;;;0.70;0.50;;;;;;;2.55;100.00;93246.88;5053890;28;20228;-75
2022/01/05 04:20:22;;;;;;;0.40;0.40;;;;;;;2.61;100.00;93248.56;5072763;28;20202;-75
2022/01/05 04:22:47;;;;;;;0.40;0.40;;;;;;;2.53;100.00;93246.59;5071113;28;20205;-75
2022/01/05 04:25:14;;;;;;;0.30;0.30;;;;;;;2.51;100.00;93235.50;5074621;28;20587;-72
2022/01/05 04:27:40;;;;;;;0.40;0.40;;;;;;;2.29;100.00;93244.41;5050932;28;20187;-72
2022/01/05 04:30:08;;;;;;;0.30;0.30;;;;;;;2.36;100.00;93246.09;5051725;28;20200;-72
2022/01/05 04:32:34;;;;;;;0.40;0.40;;;;;;;2.37;100.00;93251.06;5050702;28;20245;-75
2022/01/05 04:35:00;;;;;;;0.33;0.30;;;;;;;2.40;100.00;93250.16;5063422;28;20222;-73
2022/01/05 04:37:26;;;;;;;0.73;0.40;;;;;;;2.39;100.00;93240.56;5055351;28;20189;-73
2022/01/05 04:40:09;;;;;;;0.40;0.40;;;;;;;2.24;100.00;93253.09;5066291;28;20808;-73
2022/01/05 04:42:34;;;;;;;0.40;0.40;;;;;;;2.17;100.00;93239.88;5079671;28;20667;-73
2022/01/05 04:45:00;;;;;;;0.30;0.30;;;;;;;2.27;100.00;93238.72;5081040;28;20208;-73
2022/01/05 04:47:25;;;;;;;0.30;0.30;;;;;;;2.11;100.00;93230.91;5051940;28;20198;-73
2022/01/05 04:49:51;;;;;;;0.20;0.20;;;;;;;2.27;100.00;93251.47;5063364;28;20257;-73
2022/01/05 04:52:17;;;;;;;0.23;0.23;;;;;;;2.33;100.00;93231.56;5064651;28;20191;-73
2022/01/05 04:54:43;;;;;;;0.30;0.30;;;;;;;2.38;100.00;93233.69;5048710;28;20214;-73
2022/01/05 04:57:08;;;;;;;0.20;0.20;;;;;;;2.39;100.00;93239.81;5072370;28;20188;-73
2022/01/05 04:59:35;;;;;;;0.57;0.50;;;;;;;2.46;100.00;93234.88;5072483;28;20185;-73
2022/01/05 05:02:01;;;;;;;0.27;0.20;;;;;;;2.37;100.00;93242.97;5059487;28;20558;-73
2022/01/05 05:04:27;;;;;;;0.20;0.20;;;;;;;2.28;100.00;93236.78;5066425;28;20236;-73
2022/01/05 05:06:52;;;;;;;0.30;0.30;;;;;;;2.28;100.00;93228.72;5051436;28;20680;-73
2022/01/05 05:09:18;;;;;;;0.30;0.30;;;;;;;2.19;100.00;93226.75;5057514;28;20623;-73
2022/01/05 05:11:44;;;;;;;0.30;0.30;;;;;;;2.25;100.00;93232.31;5062228;28;20640;-73
2022/01/05 05:14:11;;;;;;;0.30;0.30;;;;;;;2.31;100.00;93242.03;5058958;28;20216;-74
2022/01/05 05:16:37;;;;;;;0.20;0.20;;;;;;;2.33;100.00;93231.56;5079672;28;20194;-72
2022/01/05 05:19:03;;;;;;;0.27;0.23;;;;;;;2.39;100.00;93245.94;5065063;28;20226;-72
2022/01/05 05:21:28;;;;;;;0.20;0.20;;;;;;;2.40;100.00;93236.69;5051500;28;20652;-72
2022/01/05 05:23:54;;;;;;;0.30;0.30;;;;;;;2.39;100.00;93240.56;5033567;28;20214;-73
2022/01/05 05:26:20;;;;;;;0.20;0.20;;;;;;;2.28;100.00;93244.88;5062734;28;20190;-73
2022/01/05 05:28:45;;;;;;;0.20;0.20;;;;;;;2.31;100.00;93235.91;5050058;28;20191;-73
2022/01/05 05:31:11;;;;;;;0.30;0.30;;;;;;;2.35;100.00;93239.97;5062730;28;20513;-73
2022/01/05 05:33:36;;;;;;;0.20;0.20;;;;;;;2.37;100.00;93242.97;5065760;28;20651;-74
2022/01/05 05:36:02;;;;;;;0.20;0.20;;;;;;;2.37;100.00;93244.91;5058603;28;20221;-73
2022/01/05 05:38:28;;;;;;;0.57;0.20;;;;;;;2.54;100.00;93237.31;5068116;28;20232;-73
2022/01/05 05:40:54;;;;;;;1.50;0.40;;;;;;;2.56;100.00;93246.47;5068415;28;20201;-73
2022/01/05 05:43:23;;;;;;;2.63;0.30;;;;;;;2.31;100.00;93249.38;5067382;28;20302;-73
2022/01/05 05:45:49;;;;;;;0.20;0.20;;;;;;;2.33;100.00;93252.38;5056306;28;20210;-73
2022/01/05 05:48:15;;;;;;;0.30;0.30;;;;;;;2.28;100.00;93258.34;5062697;28;20187;-73
2022/01/05 05:50:40;;;;;;;0.20;0.20;;;;;;;2.39;100.00;93232.47;5050547;28;20190;-73
2022/01/05 05:53:06;;;;;;;0.20;0.20;;;;;;;2.52;100.00;93255.84;5063498;28;20185;-73
2022/01/05 05:55:33;;;;;;;0.20;0.20;;;;;;;2.54;100.00;93242.69;5050106;28;20220;-73
2022/01/05 05:57:59;;;;;;;0.57;0.30;;;;;;;2.63;100.00;93248.13;5069643;28;20194;-73
2022/01/05 06:00:25;;;;;;;0.20;0.20;;;;;;;2.66;100.00;93252.59;5048390;28;20190;-73
2022/01/05 06:02:51;;;;;;;0.20;0.20;;;;;;;2.53;100.00;93241.94;5067758;28;20205;-73
2022/01/05 06:05:17;;;;;;;0.20;0.20;;;;;;;2.61;100.00;93245.09;5070962;28;20324;-73
2022/01/05 06:07:42;;;;;;;0.27;0.27;;;;;;;2.60;100.00;93270.56;5044932;28;20277;-73
2022/01/05 06:10:09;;;;;;;0.20;0.20;;;;;;;2.73;100.00;93247.69;5052511;28;20197;-73
2022/01/05 06:12:34;;;;;;;4.33;0.40;;;;;;;2.87;100.00;93254.44;5052191;28;20197;-73
2022/01/05 06:15:00;;;;;;;0.20;0.20;;;;;;;2.75;100.00;93256.06;5073966;28;20210;-73
2022/01/05 06:17:26;;;;;;;0.23;0.20;;;;;;;2.79;100.00;93258.59;5020970;28;20273;-73
2022/01/05 06:19:55;;;;;;;0.20;0.20;;;;;;;2.83;100.00;93264.59;5050577;28;20294;-73
2022/01/05 06:22:20;;;;;;;0.20;0.20;;;;;;;2.78;100.00;93259.81;5067714;28;20565;-73
2022/01/05 06:24:46;;;;;;;0.23;0.23;;;;;;;2.74;100.00;93262.66;5062387;28;20210;-73
2022/01/05 06:27:12;;;;;;;0.83;0.30;;;;;;;2.83;100.00;93253.81;5055187;28;20296;-73
2022/01/05 06:29:39;;;;;;;0.20;0.20;;;;;;;2.78;100.00;93259.81;5056075;28;20190;-73
2022/01/05 06:32:05;;;;;;;0.77;0.20;;;;;;;2.93;100.00;93248.00;5067320;28;20603;-73
2022/01/05 06:34:31;;;;;;;0.23;0.23;;;;;;;2.92;100.00;93243.78;5065534;28;20201;-73
2022/01/05 06:36:57;;;;;;;0.20;0.20;;;;;;;2.83;100.00;93251.13;5071027;28;20190;-73
2022/01/05 06:39:22;;;;;;;0.20;0.20;;;;;;;2.97;100.00;93256.69;5068310;28;20186;-73
2022/01/05 06:41:48;;;;;;;0.30;0.30;;;;;;;3.05;100.00;93268.69;5057766;28;20207;-73
2022/01/05 06:44:14;;;;;;;0.20;0.20;;;;;;;3.07;100.00;93271.66;5069419;28;20248;-73
2022/01/05 06:46:40;;;;;;;0.20;0.20;;;;;;;3.08;100.00;93262.41;5052643;28;20236;-73
2022/01/05 06:49:05;;;;;;;0.30;0.30;;;;;;;3.22;100.00;93272.59;5050743;28;20229;-73
2022/01/05 06:51:31;;;;;;;0.20;0.20;;;;;;;3.13;100.00;93275.28;5057357;28;20688;-73
2022/01/05 06:53:57;;;;;;;0.20;0.20;;;;;;;3.02;100.00;93277.66;5067622;28;20607;-73
2022/01/05 06:56:22;;;;;;;0.20;0.20;;;;;;;3.09;100.00;93280.06;5066901;28;20731;-73
2022/01/05 06:58:48;;;;;;;0.20;0.20;;;;;;;3.07;100.00;93273.63;5054033;28;20553;-73
2022/01/05 07:01:14;;;;;;;0.20;0.20;;;;;;;3.13;100.00;93277.22;5069084;28;20968;-73
2022/01/05 07:03:39;;;;;;;0.20;0.20;;;;;;;2.92;100.00;93278.13;5050485;28;20202;-73
2022/01/05 07:06:05;;;;;;;0.20;0.20;;;;;;;3.05;100.00;93292.19;5066244;28;20257;-73
2022/01/05 07:08:31;;;;;;;0.20;0.20;;;;;;;3.09;100.00;93282.75;5057484;28;20793;-73
2022/01/05 07:10:57;;;;;;;0.20;0.20;;;;;;;3.01;100.00;93294.28;5057838;28;20186;-73
2022/01/05 07:13:23;;;;;;;0.40;0.40;;;;;;;3.01;100.00;93292.34;5061088;28;20183;-73
2022/01/05 07:15:49;;;;;;;0.20;0.20;;;;;;;3.06;100.00;93286.34;5061419;28;20254;-73
2022/01/05 07:18:15;;;;;;;0.30;0.30;;;;;;;3.06;100.00;93296.38;5059315;28;20197;-73
2022/01/05 07:20:40;;;;;;;0.93;0.63;;;;;;;3.07;100.00;93300.59;5074011;28;20187;-73
2022/01/05 07:23:06;;;;;;;0.47;0.47;;;;;;;3.03;100.00;93298.03;5056788;28;20222;-73
2022/01/05 07:25:32;;;;;;;0.20;0.20;;;;;;;2.97;100.00;93288.31;5053000;28;20296;-73
2022/01/05 07:27:58;;;;;;;0.90;0.70;;;;;;;3.01;100.00;93300.44;5057929;28;20213;-73
2022/01/05 07:30:23;;;;;;;1.60;0.30;;;;;;;3.02;100.00;93301.19;5063039;28;20190;-73
2022/01/05 07:32:49;;;;;;;0.50;0.37;;;;;;;3.03;100.00;93302.69;5054691;28;20187;-73
2022/01/05 07:35:15;;;;;;;1.13;0.90;;;;;;;3.14;100.00;93308.41;5073948;28;20255;-72
2022/01/05 07:37:41;;;;;;;0.60;0.60;;;;;;;3.07;100.00;93304.03;5059641;28;20197;-73
2022/01/05 07:40:07;;;;;;;0.20;0.20;;;;;;;3.14;100.00;93308.41;5052350;28;20205;-73
2022/01/05 07:42:34;;;;;;;0.40;0.40;;;;;;;3.12;100.00;93305.41;5055609;28;20197;-73
2022/01/05 07:45:05;;;;;;;1.60;0.40;;;;;;;3.12;100.00;93302.69;5065944;28;20267;-73
2022/01/05 07:47:31;;;;;;;0.30;0.30;;;;;;;3.17;100.00;93316.31;5067857;28;20194;-73
2022/01/05 07:49:57;;;;;;;0.37;0.30;;;;;;;3.09;100.00;93325.16;5055350;28;20178;-73
2022/01/05 07:52:23;;;;;;;0.20;0.20;;;;;;;3.12;100.00;93332.38;5072161;28;20199;-73
2022/01/05 07:54:51;;;;;;;0.20;0.20;;;;;;;3.11;100.00;93320.81;5065107;28;20328;-73
2022/01/05 07:57:17;;;;;;;0.20;0.20;;;;;;;3.09;100.00;93342.09;5061101;28;20204;-73
2022/01/05 07:59:42;;;;;;;0.40;0.40;;;;;;;3.05;100.00;93336.09;5064027;28;20194;-73
2022/01/05 08:02:08;;;;;;;0.50;0.50;;;;;;;3.13;100.00;93345.41;5072062;28;20670;-73
2022/01/05 08:04:34;;;;;;;0.27;0.20;;;;;;;3.03;100.00;93360.06;5064440;28;20296;-73
2022/01/05 08:06:59;;;;;;;0.60;0.43;;;;;;;3.00;100.00;93360.97;5090390;28;20189;-73
2022/01/05 08:09:25;;;;;;;0.20;0.20;;;;;;;2.84;100.00;93371.97;5067458;28;20200;-73
2022/01/05 08:11:50;;;;;;;0.30;0.30;;;;;;;2.74;100.00;93367.00;5073131;28;20189;-73
2022/01/05 08:14:16;;;;;;;3.07;0.50;;;;;;;2.83;100.00;93375.13;5058266;28;20663;-73
2022/01/05 08:16:42;;;;;;;0.27;0.27;;;;;;;2.78;100.00;93398.03;5062764;28;20786;-73
2022/01/05 08:19:07;;;;;;;0.20;0.20;;;;;;;2.83;100.00;93392.06;5057330;28;20672;-73
2022/01/05 08:21:33;;;;;;;0.40;0.40;;;;;;;2.73;100.00;93397.84;5055024;28;20536;-73
2022/01/05 08:23:59;;;;;;;0.30;0.30;;;;;;;2.76;100.00;93396.97;5072519;28;20548;-73
2022/01/05 08:26:27;;;;;;;0.40;0.40;;;;;;;2.85;100.00;93407.78;5068198;28;20275;-73
2022/01/05 08:28:52;;;;;;;0.30;0.30;;;;;;;2.72;100.00;93415.19;5052540;28;20688;-73
2022/01/05 08:31:18;;;;;;;0.20;0.20;;;;;;;2.69;100.00;93416.84;5055631;28;20261;-73
2022/01/05 08:33:44;;;;;;;0.73;0.43;;;;;;;2.67;100.00;93432.72;5051239;28;20205;-73
2022/01/05 08:36:09;;;;;;;0.20;0.20;;;;;;;2.70;100.00;93431.81;5072870;28;20213;-73
2022/01/05 08:38:37;;;;;;;0.40;0.40;;;;;;;2.79;100.00;93441.88;5069815;28;20248;-73
2022/01/05 08:41:03;;;;;;;0.20;0.20;;;;;;;2.73;100.00;93449.06;5071446;28;20240;-73
2022/01/05 08:43:29;;;;;;;0.47;0.47;;;;;;;2.71;100.00;93427.94;5066339;28;20242;-73
2022/01/05 08:45:55;;;;;;;0.20;0.20;;;;;;;2.75;100.00;93454.78;5066224;28;20237;-73
2022/01/05 08:48:20;;;;;;;0.20;0.20;;;;;;;2.71;100.00;93437.97;5070079;28;20204;-73
2022/01/05 08:50:46;;;;;;;0.20;0.20;;;;;;;2.73;100.00;93444.44;5038207;28;20194;-73
2022/01/05 08:53:12;;;;;;;0.83;0.30;;;;;;;2.85;100.00;93453.63;5044143;28;20193;-73
2022/01/05 08:55:44;;;;;;;0.30;0.30;;;;;;;2.80;100.00;93460.31;5061837;28;20206;-73
2022/01/05 08:58:10;;;;;;;0.23;0.23;;;;;;;2.79;100.00;93453.44;5058993;28;20198;-73
2022/01/05 09:00:36;;;;;;;0.30;0.30;;;;;;;2.77;100.00;93476.63;5069827;28;20272;-73
2022/01/05 09:03:03;;;;;;;0.23;0.23;;;;;;;2.85;100.00;93477.88;5063591;28;20214;-73
2022/01/05 09:05:30;;;;;;;0.30;0.30;;;;;;;2.87;100.00;93470.84;5074241;28;20209;-73
2022/01/05 09:07:55;;;;;;;0.40;0.40;;;;;;;2.90;100.00;93482.69;5091423;28;20189;-73
2022/01/05 09:10:21;;;;;;;0.40;0.40;;;;;;;2.96;100.00;93489.00;5056563;28;20233;-73
2022/01/05 09:12:47;;;;;;;0.30;0.30;;;;;;;2.83;100.00;93485.66;5059557;28;20228;-73
2022/01/05 09:15:12;;;;;;;0.30;0.30;;;;;;;2.77;100.00;93493.56;5049548;28;20849;-74
2022/01/05 09:17:38;;;;;;;0.57;0.27;;;;;;;2.77;100.00;93515.13;5065768;28;20194;-73
2022/01/05 09:20:04;;;;;;;0.30;0.30;;;;;;;2.67;100.00;93510.88;5050554;28;20202;-73
2022/01/05 09:22:30;;;;;;;0.40;0.40;;;;;;;2.58;100.00;93526.97;5060796;28;20268;-73
2022/01/05 09:24:56;;;;;;;0.30;0.30;;;;;;;2.41;100.00;93528.34;5055811;28;20293;-72
2022/01/05 09:27:22;;;;;;;0.47;0.47;;;;;;;2.28;100.00;93543.81;5058494;28;20263;-73
2022/01/05 09:29:49;;;;;;;0.40;0.40;;;;;;;2.16;100.00;93552.69;5069982;28;20189;-73
2022/01/05 09:32:15;;;;;;;0.77;0.43;;;;;;;2.17;100.00;93546.13;5067173;28;20194;-73
2022/01/05 09:34:42;;;;;;;0.30;0.30;;;;;;;2.02;100.00;93561.25;5058408;28;20260;-73
2022/01/05 09:37:28;;;;;;;0.53;0.40;;;;;;;2.00;100.00;93569.00;5050788;28;20194;-73
2022/01/05 09:42:39;;;;;;;0.93;0.70;;;;;;;1.89;100.00;93582.03;5078967;28;20240;-73
2022/01/05 09:45:27;;;;;;;0.60;0.60;;;;;;;1.90;100.00;93580.88;5032217;28;20231;-73
2022/01/05 09:48:37;;;;;;;0.60;0.60;;;;;;;1.79;100.00;93583.91;5078667;28;20201;-73
2022/01/05 09:51:06;;;;;;;0.70;0.70;;;;;;;1.96;100.00;93596.03;5050375;28;20236;-73
2022/01/05 09:53:34;;;;;;;0.80;0.80;;;;;;;1.89;100.00;93592.81;5049456;28;20722;-73
2022/01/05 09:56:00;;;;;;;0.70;0.70;;;;;;;1.82;100.00;93593.78;5050123;28;20215;-73
2022/01/05 09:58:27;;;;;;;0.80;0.80;;;;;;;1.79;100.00;93601.97;5060286;28;20194;-73
2022/01/05 10:00:53;;;;;;;1.30;1.20;;;;;;;2.14;100.00;93611.59;5050209;28;20892;-73
2022/01/05 10:03:21;;;;;;;1.20;1.10;;;;;;;2.03;100.00;93606.59;5053276;28;20713;-73
2022/01/05 10:05:47;;;;;;;2.63;1.13;;;;;;;1.98;100.00;93603.69;5080209;28;20712;-73
2022/01/05 10:08:13;;;;;;;1.47;1.20;;;;;;;1.89;100.00;93606.28;5078516;28;20198;-74
2022/01/05 10:10:41;;;;;;;1.43;1.00;;;;;;;1.87;100.00;93605.94;5068009;28;20193;-73
2022/01/05 10:13:07;;;;;;;1.30;1.20;;;;;;;2.05;100.00;93614.22;5070055;28;20624;-73
2022/01/05 10:15:35;;;;;;;2.20;1.20;;;;;;;1.98;100.00;93609.06;5036850;28;20213;-74
2022/01/05 10:18:10;;;;;;;3.73;1.23;;;;;;;1.76;100.00;93614.38;5058087;28;20246;-73
2022/01/05 10:20:35;;;;;;;1.10;1.00;;;;;;;1.58;100.00;93616.09;5078935;28;20565;-73
2022/01/05 10:23:01;;;;;;;2.00;1.10;;;;;;;1.78;100.00;93620.06;5045596;28;20240;-73
2022/01/05 10:25:27;;;;;;;2.07;1.30;;;;;;;1.80;100.00;93630.41;5060969;28;20321;-73
2022/01/05 10:27:58;;;;;;;1.43;1.23;;;;;;;1.75;100.00;93644.41;5051682;28;20293;-73
2022/01/05 10:30:39;;;;;;;1.57;1.43;;;;;;;1.63;100.00;93653.25;5053859;28;20220;-73
2022/01/05 10:33:06;;;;;;;1.33;1.23;;;;;;;1.63;100.00;93645.16;5067299;28;20209;-73
2022/01/05 10:35:32;;;;;;;4.43;1.50;;;;;;;1.55;100.00;93644.63;5075961;28;20209;-73
2022/01/05 10:38:09;;;;;;;1.13;1.00;;;;;;;1.53;100.00;93641.59;5064841;28;20209;-73
2022/01/05 10:40:37;;;;;;;0.93;0.93;;;;;;;1.55;100.00;93657.31;5057512;28;20198;-73
2022/01/05 10:43:09;;;;;;;1.40;1.20;;;;;;;1.48;100.00;93660.22;5044806;28;20331;-73
2022/01/05 10:45:52;;;;;;;4.53;1.40;;;;;;;1.46;100.00;93711.00;5049311;28;20214;-73
2022/01/05 10:48:20;;;;;;;1.10;1.00;;;;;;;1.37;100.00;93665.16;5049453;28;20574;-74
2022/01/05 10:50:48;;;;;;;2.83;1.10;;;;;;;1.33;100.00;93653.72;5041447;28;20191;-73
2022/01/05 10:53:16;;;;;;;2.13;1.00;;;;;;;1.32;100.00;93660.28;5051701;28;20291;-73
2022/01/05 10:55:45;;;;;;;2.30;1.30;;;;;;;1.24;100.00;93660.50;5040705;28;20288;-73
2022/01/05 10:58:17;;;;;;;2.50;1.60;;;;;;;1.45;100.00;93658.38;5060777;28;20222;-73
2022/01/05 11:00:54;;;;;;;1.33;1.23;;;;;;;1.48;100.00;93658.28;5066106;28;20276;-74
2022/01/05 11:03:42;;;;;;;1.97;1.30;;;;;;;1.46;100.00;93659.91;5066787;28;20493;-74
2022/01/05 11:06:21;;;;;;;1.50;1.40;;;;;;;1.56;100.00;93669.59;5077534;28;20210;-73
2022/01/05 11:09:06;;;;;;;1.40;1.30;;;;;;;1.57;100.00;93671.09;5057522;28;20200;-73
2022/01/05 11:11:36;;;;;;;2.90;1.47;;;;;;;1.53;100.00;93673.88;5070656;28;20193;-73
2022/01/05 11:14:49;;;;;;;4.00;1.40;;;;;;;1.72;100.00;93678.31;5068908;28;20249;-74
2022/01/05 11:17:17;;;;;;;1.90;1.50;;;;;;;1.66;100.00;93684.66;5067085;28;20214;-74
2022/01/05 11:19:43;;;;;;;2.10;1.40;;;;;;;1.76;100.00;93689.72;5062114;28;20205;-74
2022/01/05 11:22:21;;;;;;;3.17;1.53;;;;;;;1.70;100.00;93690.66;5078844;28;20200;-74
2022/01/05 11:24:56;;;;;;;2.50;1.40;;;;;;;1.79;100.00;93690.78;5078389;28;20201;-74
2022/01/05 11:27:25;;;;;;;2.73;1.53;;;;;;;1.72;100.00;93699.06;5071125;28;20193;-73
2022/01/05 11:29:51;;;;;;;1.53;1.23;;;;;;;1.61;100.00;93704.03;5071935;28;20186;-74
2022/01/05 11:32:24;;;;;;;2.10;1.33;;;;;;;1.67;100.00;93705.75;5070750;28;20216;-73
2022/01/05 11:34:51;;;;;;;1.37;1.10;;;;;;;1.78;100.00;93708.88;5057503;28;20329;-73
2022/01/05 11:37:20;;;;;;;1.80;1.30;;;;;;;1.91;100.00;93716.97;5086532;28;20190;-73